Yuma, AZ

4:03 PM MST on April 29, 2017 (GMT -0700)
El Pueblocito | | Change Station
Active Advisory: Fire Weather Warning

Elev 121 ft 32.70 °N, 114.64 °W | Updated 37 seconds ago

Clear
Clear
83.6 °F
Feels Like 81 °F
N
8.3
Wind Variable Wind from North

Today
High -- | Low -- °F
--% Chance of Precip.
Yesterday
High -- | Low -- °F
Precip. -- in
Pressure 29.92 in
Visibility 10.0 miles
Clouds Clear
Heat Index 81 °F
Dew Point 24 °F
Humidity 11%
Rainfall 0.00 in
Snow Depth Not available.
5:53 AM 7:19 PM
Waxing Crescent, 17% visible
METAR KNYL 292257Z AUTO 34011G22KT 10SM CLR 29/M08 A2992 RMK AO2 SLP131 T02891078
Pressure 29.92 in
Visibility 10.0 miles
Clouds Clear
Heat Index 81 °F
Dew Point 24 °F
Humidity 11%
Rainfall 0.00 in
Snow Depth Not available.
5:53 AM 7:19 PM
Waxing Crescent, 17% visible
METAR KNYL 292257Z AUTO 34011G22KT 10SM CLR 29/M08 A2992 RMK AO2 SLP131 T02891078

Get Your Daily Forecast Email!

Thanks for signing up!

Be on the lookout for a verification email in your inbox.

You'll start receiving severe weather alerts in your inbox..

×

10-Day Weather Forecast

Almanac

Astronomy

Apr. 29, 2017 Rise Set
Actual Time
Civil Twilight
Nautical Twilight
Astronomical Twilight
Moon
Length of Visible Light
Length of Day
Tomorrow will be .
, % of the Moon is Illuminated

Today's Extremes

State Highs State Lows

Community

WunderPhotos

WunderBlog® & News

Nearby

Air Quality

  Air Quality AQ Index Pollutant
Not available.

Snow Depth

Station Depth Elevation

Earthquake Activity

City Distance Mag. Time & Date
Minimum magnitude displayed is 2.5.

Coastal Water Temperatures

Place Temperature

Stations

Nearby Weather Stations

Station Location Temp. Windchill Dew Point Humidity Wind Precip. Elev Updated Type
                   

Watches & Warnings

Fire Weather Warning
Issued: 2:10 PM PDT Apr. 29, 2017 – National Weather Service

... Red flag warning remains in effect until 7 PM MST /7 PM PDT/
this evening for strong winds, low relative humidity and very
high fire danger for the lower Colorado River valley...

* affected area... Yuma/Martinez Lake and vicinity/lower Colorado
River valley AZ and lower Colorado River valley CA.

* Winds... north 15 to 25 mph with gusts up to 35 mph.

* Timing... until 7 PM MST/PDT

* relative humidity... as low as 6 percent.

* Impacts... fuels are dry and fire danger is very high. These
conditions combined with low relative humidity and strong
winds will lead to widespread hazardous fire weather
conditions Saturday.

Precautionary/preparedness actions...

Please advise the appropriate officials and fire crews in the
field of this red flag warning.